createdAt,value
2018-06-04T00:00:55.885Z,15.20
2018-06-04T00:03:24.886Z,15.20
2018-06-04T00:05:53.966Z,15.20
2018-06-04T00:08:22.975Z,15.10
2018-06-04T00:10:52.083Z,15.10
2018-06-04T00:13:21.152Z,15.10
2018-06-04T00:15:50.637Z,15.10
2018-06-04T00:20:48.193Z,15.10
2018-06-04T00:23:17.207Z,15.10
2018-06-04T00:25:46.223Z,15.10
2018-06-04T00:28:15.310Z,15.10
2018-06-04T00:30:44.294Z,15.10
2018-06-04T00:33:13.327Z,15.10
2018-06-04T00:35:42.335Z,15.00
2018-06-04T00:38:11.357Z,15.00
2018-06-04T00:40:40.369Z,15.00
2018-06-04T00:43:09.417Z,14.90
2018-06-04T00:45:38.420Z,14.80
2018-06-04T00:48:07.487Z,14.80
2018-06-04T00:50:36.483Z,14.70
2018-06-04T00:53:05.517Z,14.60
2018-06-04T00:55:44.361Z,14.60
2018-06-04T00:58:13.399Z,14.50
2018-06-04T01:00:42.425Z,14.50
2018-06-04T01:03:11.444Z,14.50
2018-06-04T01:05:40.475Z,14.40
2018-06-04T01:08:09.507Z,14.40
2018-06-04T01:10:38.555Z,14.40
2018-06-04T01:13:07.615Z,14.40
2018-06-04T01:15:36.689Z,14.30
2018-06-04T01:18:05.769Z,14.40
2018-06-04T01:23:03.321Z,14.50
2018-06-04T01:25:32.366Z,14.40
2018-06-04T01:28:01.361Z,14.40
2018-06-04T01:30:30.424Z,14.40
2018-06-04T01:32:59.451Z,14.50
2018-06-04T01:35:28.996Z,14.50
2018-06-04T01:37:58.803Z,14.30
2018-06-04T01:40:27.823Z,14.30
2018-06-04T01:42:56.802Z,14.20
2018-06-04T01:45:25.841Z,14.20
2018-06-04T01:47:54.847Z,14.20
2018-06-04T01:50:23.940Z,14.20
2018-06-04T01:52:52.960Z,14.10
2018-06-04T01:55:22.070Z,14.10
2018-06-04T01:57:51.093Z,14.10
2018-06-04T02:00:20.141Z,14.10
2018-06-04T02:02:49.184Z,14.10
2018-06-04T02:05:18.273Z,14.20
2018-06-04T02:07:47.287Z,14.20
2018-06-04T02:10:16.319Z,14.10
2018-06-04T02:12:45.357Z,14.00
2018-06-04T02:15:14.404Z,14.10
2018-06-04T02:17:43.391Z,14.00
2018-06-04T02:20:12.455Z,14.00
2018-06-04T02:22:41.442Z,13.90
2018-06-04T02:25:10.463Z,13.90
2018-06-04T02:27:39.447Z,13.90
2018-06-04T02:30:08.465Z,13.80
2018-06-04T02:32:37.472Z,13.70
2018-06-04T02:35:06.543Z,13.70
2018-06-04T02:37:35.601Z,13.70
2018-06-04T02:40:04.751Z,13.70
2018-06-04T02:42:33.793Z,13.60
2018-06-04T02:45:02.804Z,13.70
2018-06-04T02:47:31.842Z,13.70
2018-06-04T02:50:00.920Z,13.60
2018-06-04T02:52:29.952Z,13.60
2018-06-04T02:54:59.004Z,13.70
2018-06-04T02:57:28.115Z,13.80
2018-06-04T02:59:57.135Z,13.90
2018-06-04T03:02:26.184Z,13.70
2018-06-04T03:04:55.219Z,13.70
2018-06-04T03:07:24.244Z,13.70
2018-06-04T03:09:53.244Z,13.60
2018-06-04T03:14:50.803Z,13.50
2018-06-04T03:17:19.844Z,13.50
2018-06-04T03:19:48.912Z,13.50
2018-06-04T03:22:17.947Z,13.50
2018-06-04T03:24:46.997Z,13.40
2018-06-04T03:27:16.102Z,13.40
2018-06-04T03:29:45.131Z,13.30
2018-06-04T03:32:14.124Z,13.40
2018-06-04T03:34:43.173Z,13.30
2018-06-04T03:37:12.197Z,13.30
2018-06-04T03:39:41.234Z,13.30
2018-06-04T03:42:10.215Z,13.30
2018-06-04T03:44:39.248Z,13.30
2018-06-04T03:47:08.292Z,13.30
2018-06-04T03:49:37.354Z,13.30
2018-06-04T03:52:06.435Z,13.30
2018-06-04T03:54:35.483Z,13.30
2018-06-04T03:57:04.499Z,13.40
2018-06-04T03:59:33.546Z,13.40
2018-06-04T04:02:02.535Z,13.40
2018-06-04T04:04:31.583Z,13.50
2018-06-04T04:07:00.576Z,13.50
2018-06-04T04:09:29.633Z,13.50
2018-06-04T04:11:58.660Z,13.60
2018-06-04T04:14:27.697Z,13.60
2018-06-04T04:16:56.720Z,13.60
2018-06-04T04:19:25.790Z,13.70
2018-06-04T04:21:54.840Z,13.80
2018-06-04T04:24:23.883Z,13.90
2018-06-04T04:26:52.893Z,13.90
2018-06-04T04:29:21.946Z,14.00
2018-06-04T04:31:50.998Z,14.10
2018-06-04T04:34:20.019Z,14.20
2018-06-04T04:36:49.040Z,14.30
2018-06-04T04:39:18.044Z,14.40
2018-06-04T04:41:47.099Z,14.60
2018-06-04T04:44:17.132Z,14.60
2018-06-04T04:46:46.278Z,14.70
2018-06-04T04:51:43.843Z,14.90
2018-06-04T04:54:13.099Z,15.00
2018-06-04T04:56:42.185Z,15.20
2018-06-04T04:59:11.209Z,15.30
2018-06-04T05:06:37.383Z,15.60
2018-06-04T05:09:09.132Z,15.70
2018-06-04T05:11:38.236Z,15.90
2018-06-04T05:14:07.283Z,16.00
2018-06-04T05:16:36.300Z,16.20
2018-06-04T05:19:05.392Z,16.40
2018-06-04T05:21:34.412Z,16.80
2018-06-04T05:24:03.447Z,17.20
2018-06-04T05:26:32.495Z,17.50
2018-06-04T05:29:01.598Z,17.90
2018-06-04T05:31:30.628Z,18.10
2018-06-04T05:33:59.651Z,18.30
2018-06-04T05:36:28.729Z,18.50
2018-06-04T05:38:57.721Z,18.80
2018-06-04T05:41:26.768Z,19.10
2018-06-04T05:43:55.797Z,19.20
2018-06-04T05:46:24.913Z,19.20
2018-06-04T05:48:54.005Z,19.30
2018-06-04T05:51:23.252Z,19.30
2018-06-04T05:53:52.224Z,19.40
2018-06-04T05:56:21.306Z,19.50
2018-06-04T05:58:50.364Z,19.90
2018-06-04T06:01:19.450Z,20.20
2018-06-04T06:03:48.536Z,20.30
2018-06-04T06:06:17.564Z,20.40
2018-06-04T06:11:15.153Z,20.80
2018-06-04T06:13:44.195Z,21.10
2018-06-04T06:16:13.261Z,21.30
2018-06-04T06:18:42.324Z,21.20
2018-06-04T06:21:11.355Z,21.30
2018-06-04T06:23:40.365Z,21.30
2018-06-04T06:26:09.390Z,21.30
2018-06-04T06:31:07.971Z,21.40
2018-06-04T06:33:36.981Z,21.60
2018-06-04T06:36:06.110Z,21.80
2018-06-04T06:38:35.122Z,21.80
2018-06-04T06:41:04.172Z,22.00
2018-06-04T06:43:33.180Z,21.90
2018-06-04T06:46:02.248Z,21.80
2018-06-04T06:48:31.248Z,21.90
2018-06-04T06:51:00.280Z,22.00
2018-06-04T06:53:29.346Z,22.20
2018-06-04T06:55:58.517Z,22.20
2018-06-04T06:58:27.562Z,22.30
2018-06-04T07:00:56.590Z,22.40
2018-06-04T07:03:25.584Z,22.50
2018-06-04T07:05:54.621Z,22.60
2018-06-04T07:08:23.659Z,22.70
2018-06-04T07:10:52.686Z,23.00
2018-06-04T07:13:21.707Z,23.00
2018-06-04T07:15:50.796Z,22.80
2018-06-04T07:18:19.897Z,22.90
2018-06-04T07:20:48.965Z,23.00
2018-06-04T07:23:18.061Z,23.10
2018-06-04T07:25:47.110Z,23.10
2018-06-04T07:28:16.107Z,23.20
2018-06-04T07:30:45.184Z,23.40
2018-06-04T07:33:14.167Z,23.40
2018-06-04T07:35:43.226Z,23.20
2018-06-04T07:38:12.287Z,23.20
2018-06-04T07:40:41.269Z,23.40
2018-06-04T07:43:10.360Z,23.60
2018-06-04T07:45:39.368Z,23.60
2018-06-04T07:48:08.408Z,23.80
2018-06-04T07:50:37.461Z,23.90
2018-06-04T07:53:06.479Z,24.10
2018-06-04T07:55:35.509Z,24.30
2018-06-04T07:58:04.647Z,24.60
2018-06-04T08:00:33.693Z,24.60
2018-06-04T08:03:02.708Z,24.50
2018-06-04T08:05:31.861Z,24.60
2018-06-04T08:08:00.940Z,25.00
2018-06-04T08:10:29.961Z,25.00
2018-06-04T08:12:58.987Z,24.90
2018-06-04T08:15:28.072Z,25.00
2018-06-04T08:17:57.226Z,25.20
2018-06-04T08:20:26.234Z,25.40
2018-06-04T08:22:55.347Z,25.70
2018-06-04T08:25:24.391Z,26.00
2018-06-04T08:27:53.437Z,25.90
2018-06-04T08:30:22.494Z,25.90
2018-06-04T08:32:51.576Z,26.00
2018-06-04T08:35:20.615Z,26.00
2018-06-04T08:37:49.643Z,26.00
2018-06-04T08:40:18.727Z,26.10
2018-06-04T08:42:47.725Z,26.20
2018-06-04T08:45:16.777Z,26.10
2018-06-04T08:47:45.810Z,26.30
2018-06-04T08:50:14.879Z,26.10
2018-06-04T08:52:43.879Z,26.30
2018-06-04T08:55:12.939Z,26.30
2018-06-04T08:57:41.911Z,26.40
2018-06-04T09:00:10.958Z,26.50
2018-06-04T09:02:39.963Z,26.60
2018-06-04T09:05:08.965Z,26.70
2018-06-04T09:07:37.975Z,26.80
2018-06-04T09:10:07.031Z,26.90
2018-06-04T09:12:36.123Z,27.10
2018-06-04T09:15:05.289Z,27.20
2018-06-04T09:17:34.284Z,27.30
2018-06-04T09:20:03.351Z,27.20
2018-06-04T09:22:32.358Z,27.00
2018-06-04T09:25:01.384Z,27.10
2018-06-04T09:27:30.439Z,27.50
2018-06-04T09:29:59.429Z,27.80
2018-06-04T09:32:28.466Z,27.80
2018-06-04T09:34:57.469Z,27.60
2018-06-04T09:37:26.501Z,27.60
2018-06-04T09:39:55.514Z,27.30
2018-06-04T09:42:24.531Z,26.90
2018-06-04T09:44:53.519Z,26.90
2018-06-04T09:47:22.568Z,26.80
2018-06-04T09:49:51.572Z,26.70
2018-06-04T09:52:20.666Z,26.60
2018-06-04T09:54:49.663Z,26.60
2018-06-04T09:57:18.699Z,26.60
2018-06-04T09:59:47.703Z,26.60
2018-06-04T10:02:16.788Z,26.60
2018-06-04T10:04:45.906Z,26.50
2018-06-04T10:07:14.867Z,26.50
2018-06-04T10:09:43.911Z,26.50
2018-06-04T10:12:12.977Z,26.70
2018-06-04T10:14:42.002Z,26.90
2018-06-04T10:17:11.085Z,26.90
2018-06-04T10:19:40.137Z,26.90
2018-06-04T10:22:09.889Z,27.10
2018-06-04T10:24:39.076Z,27.10
2018-06-04T10:27:08.199Z,26.90
2018-06-04T10:29:37.496Z,26.80
2018-06-04T10:32:06.577Z,26.50
2018-06-04T10:34:35.609Z,26.50
2018-06-04T10:37:04.652Z,26.40
2018-06-04T10:39:33.668Z,26.20
2018-06-04T10:42:03.149Z,26.20
2018-06-04T10:44:32.168Z,26.20
2018-06-04T10:47:01.205Z,26.30
2018-06-04T10:49:30.235Z,26.40
2018-06-04T10:51:59.256Z,26.40
2018-06-04T10:54:28.312Z,26.50
2018-06-04T10:56:57.391Z,26.40
2018-06-04T10:59:26.405Z,26.40
2018-06-04T11:01:55.443Z,26.50
2018-06-04T11:04:24.475Z,26.50
2018-06-04T11:06:53.493Z,26.60
2018-06-04T11:09:22.524Z,26.60
2018-06-04T11:11:51.512Z,26.50
2018-06-04T11:14:20.574Z,26.60
2018-06-04T11:16:49.551Z,26.70
2018-06-04T11:19:18.596Z,26.80
2018-06-04T11:21:47.606Z,26.80
2018-06-04T11:24:16.666Z,27.00
2018-06-04T11:26:45.780Z,27.00
2018-06-04T11:29:14.779Z,27.00
2018-06-04T11:31:43.870Z,27.00
2018-06-04T11:34:12.915Z,26.90
2018-06-04T11:36:41.924Z,26.90
2018-06-04T11:39:11.019Z,26.80
2018-06-04T11:41:40.067Z,26.80
2018-06-04T11:44:09.062Z,26.80
2018-06-04T11:46:38.091Z,26.80
2018-06-04T11:49:07.090Z,26.60
2018-06-04T11:51:36.127Z,26.60
2018-06-04T11:54:05.149Z,26.70
2018-06-04T11:56:35.018Z,26.70
2018-06-04T11:59:04.660Z,26.80
2018-06-04T12:01:34.887Z,26.90
2018-06-04T12:04:03.953Z,26.90
2018-06-04T12:06:33.006Z,26.80
2018-06-04T12:09:02.000Z,26.90
2018-06-04T12:11:31.261Z,26.80
2018-06-04T12:14:00.300Z,26.80
2018-06-04T12:16:29.331Z,26.90
2018-06-04T12:18:58.412Z,27.00
2018-06-04T12:21:27.499Z,27.00
2018-06-04T12:23:56.572Z,26.90
2018-06-04T12:26:25.654Z,26.90
2018-06-04T12:28:54.715Z,26.90
2018-06-04T12:31:23.759Z,26.90
2018-06-04T12:33:52.789Z,26.90
2018-06-04T12:36:21.823Z,26.80
2018-06-04T12:38:50.837Z,26.80
2018-06-04T12:41:19.826Z,26.80
2018-06-04T12:43:48.891Z,26.80
2018-06-04T12:46:17.903Z,26.80
2018-06-04T12:48:47.003Z,26.90
2018-06-04T12:51:16.026Z,26.90
2018-06-04T12:53:45.092Z,26.90
2018-06-04T12:56:14.171Z,27.00
2018-06-04T12:58:43.219Z,26.90
2018-06-04T13:01:12.259Z,26.90
2018-06-04T13:03:41.261Z,27.00
2018-06-04T13:06:10.295Z,26.90
2018-06-04T13:08:39.330Z,26.90
2018-06-04T13:11:08.416Z,26.90
2018-06-04T13:13:37.422Z,26.80
2018-06-04T13:16:06.617Z,26.90
2018-06-04T13:18:35.631Z,26.90
2018-06-04T13:21:04.667Z,27.00
2018-06-04T13:23:33.747Z,27.00
2018-06-04T13:26:02.742Z,27.00
2018-06-04T13:28:31.796Z,27.10
2018-06-04T13:31:00.842Z,27.00
2018-06-04T13:33:29.910Z,27.20
2018-06-04T13:35:58.905Z,27.10
2018-06-04T13:38:27.916Z,27.10
2018-06-04T13:40:56.902Z,27.00
2018-06-04T13:43:25.942Z,27.10
2018-06-04T13:45:54.975Z,27.20
2018-06-04T13:48:24.019Z,27.20
2018-06-04T13:50:53.180Z,27.10
2018-06-04T13:53:22.214Z,27.10
2018-06-04T13:55:51.247Z,27.00
2018-06-04T13:58:20.255Z,27.10
2018-06-04T14:00:49.306Z,27.10
2018-06-04T14:03:18.368Z,27.20
2018-06-04T14:05:47.397Z,27.30
2018-06-04T14:08:16.499Z,27.20
2018-06-04T14:10:45.559Z,27.10
2018-06-04T14:13:14.583Z,27.10
2018-06-04T14:15:43.632Z,27.10
2018-06-04T14:18:12.656Z,27.10
2018-06-04T14:20:41.703Z,27.00
2018-06-04T14:23:10.726Z,27.00
2018-06-04T14:25:39.758Z,27.00
2018-06-04T14:28:08.753Z,26.90
2018-06-04T14:30:37.823Z,26.90
2018-06-04T14:33:06.953Z,26.80
2018-06-04T14:38:04.591Z,26.80
2018-06-04T14:40:33.592Z,26.80
2018-06-04T14:43:02.664Z,26.90
2018-06-04T14:45:31.678Z,26.80
2018-06-04T14:48:00.712Z,26.80
2018-06-04T14:50:29.692Z,26.80
2018-06-04T14:52:58.718Z,26.80
2018-06-04T14:55:28.202Z,26.80
2018-06-04T14:57:57.245Z,26.70
2018-06-04T15:00:26.295Z,26.60
2018-06-04T15:02:55.326Z,26.50
2018-06-04T15:05:24.463Z,26.40
2018-06-04T15:07:53.493Z,26.40
2018-06-04T15:10:22.551Z,26.50
2018-06-04T15:12:51.541Z,26.40
2018-06-04T15:15:20.605Z,26.40
2018-06-04T15:17:50.115Z,26.40
2018-06-04T15:22:47.815Z,26.50
2018-06-04T15:25:16.984Z,26.50
2018-06-04T15:27:46.017Z,26.50
2018-06-04T15:30:15.003Z,26.50
2018-06-04T15:32:44.155Z,26.50
2018-06-04T15:35:17.408Z,26.40
2018-06-04T15:37:49.263Z,26.40
2018-06-04T15:40:20.356Z,26.30
2018-06-04T15:42:52.441Z,26.40
2018-06-04T15:45:25.978Z,26.60
2018-06-04T15:47:57.687Z,26.70
2018-06-04T15:50:29.236Z,26.70
2018-06-04T15:52:58.291Z,26.50
2018-06-04T15:55:27.328Z,26.40
2018-06-04T15:57:56.435Z,26.30
2018-06-04T16:00:25.538Z,26.30
2018-06-04T16:02:54.772Z,26.30
2018-06-04T16:05:23.834Z,26.30
2018-06-04T16:07:52.911Z,26.30
2018-06-04T16:10:22.000Z,26.30
2018-06-04T16:12:51.111Z,26.30
2018-06-04T16:15:20.195Z,26.20
2018-06-04T16:17:49.183Z,26.20
2018-06-04T16:20:18.781Z,26.20
2018-06-04T16:22:47.814Z,26.20
2018-06-04T16:25:16.882Z,26.20
2018-06-04T16:27:45.959Z,26.20
2018-06-04T16:30:14.979Z,26.10
2018-06-04T16:32:43.994Z,26.10
2018-06-04T16:35:12.651Z,26.20
2018-06-04T16:37:41.712Z,26.20
2018-06-04T16:40:10.710Z,26.20
2018-06-04T16:42:39.748Z,26.10
2018-06-04T16:45:08.805Z,26.10
2018-06-04T16:47:37.966Z,26.10
2018-06-04T16:50:07.057Z,26.10
2018-06-04T16:52:37.016Z,26.10
2018-06-04T16:55:06.058Z,26.00
2018-06-04T16:57:35.161Z,25.90
2018-06-04T17:00:04.322Z,25.90
2018-06-04T17:02:33.461Z,25.80
2018-06-04T17:05:02.777Z,25.80
2018-06-04T17:07:43.268Z,25.80
2018-06-04T17:10:12.336Z,25.80
2018-06-04T17:12:41.414Z,25.80
2018-06-04T17:15:10.431Z,25.80
2018-06-04T17:17:39.559Z,25.80
2018-06-04T17:20:08.647Z,25.80
2018-06-04T17:22:37.752Z,25.70
2018-06-04T17:25:06.840Z,25.70
2018-06-04T17:27:35.980Z,25.60
2018-06-04T17:32:33.739Z,25.60
2018-06-04T17:35:02.737Z,25.60
2018-06-04T17:37:31.820Z,25.50
2018-06-04T17:40:00.835Z,25.50
2018-06-04T17:42:29.869Z,25.50
2018-06-04T17:44:58.974Z,25.50
2018-06-04T17:47:28.023Z,25.50
2018-06-04T17:49:57.225Z,25.40
2018-06-04T17:52:26.231Z,25.40
2018-06-04T17:54:55.371Z,25.40
2018-06-04T17:57:24.439Z,25.40
2018-06-04T17:59:53.562Z,25.40
2018-06-04T18:02:22.707Z,25.40
2018-06-04T18:04:51.825Z,25.30
2018-06-04T18:07:20.915Z,25.10
2018-06-04T18:09:49.942Z,25.00
2018-06-04T18:12:18.990Z,25.00
2018-06-04T18:14:48.026Z,24.90
2018-06-04T18:17:17.070Z,24.80
2018-06-04T18:19:46.109Z,24.70
2018-06-04T18:22:15.190Z,24.60
2018-06-04T18:24:44.243Z,24.60
2018-06-04T18:27:13.240Z,24.50
2018-06-04T18:29:42.303Z,24.40
2018-06-04T18:34:40.367Z,24.20
2018-06-04T18:37:09.394Z,24.10
2018-06-04T18:39:38.455Z,24.00
2018-06-04T18:42:07.639Z,24.00
2018-06-04T18:44:36.711Z,23.90
2018-06-04T18:47:05.763Z,23.80
2018-06-04T18:49:34.860Z,23.80
2018-06-04T18:52:03.915Z,23.70
2018-06-04T18:54:32.951Z,23.50
2018-06-04T18:57:01.991Z,23.40
2018-06-04T18:59:31.015Z,23.30
2018-06-04T19:02:00.182Z,23.20
2018-06-04T19:04:29.259Z,23.20
2018-06-04T19:06:58.428Z,23.00
2018-06-04T19:09:27.463Z,23.00
2018-06-04T19:11:56.489Z,22.80
2018-06-04T19:14:25.528Z,22.70
2018-06-04T19:16:54.636Z,22.70
2018-06-04T19:19:23.654Z,22.60
2018-06-04T19:21:52.957Z,22.40
2018-06-04T19:24:21.947Z,22.40
2018-06-04T19:26:51.006Z,22.30
2018-06-04T19:29:20.103Z,22.10
2018-06-04T19:31:49.125Z,22.10
2018-06-04T19:34:18.189Z,22.00
2018-06-04T19:36:47.230Z,21.90
2018-06-04T19:39:16.388Z,21.90
2018-06-04T19:41:45.394Z,21.80
2018-06-04T19:44:14.474Z,21.70
2018-06-04T19:46:43.479Z,21.70
2018-06-04T19:49:12.535Z,21.60
2018-06-04T19:51:41.589Z,21.50
2018-06-04T19:54:10.643Z,21.40
2018-06-04T19:56:39.697Z,21.30
2018-06-04T19:59:08.702Z,21.20
2018-06-04T20:01:37.808Z,21.20
2018-06-04T20:04:06.861Z,21.10
2018-06-04T20:06:35.942Z,21.10
2018-06-04T20:09:09.186Z,21.00
2018-06-04T20:11:39.102Z,20.90
2018-06-04T20:14:08.204Z,20.80
2018-06-04T20:16:37.247Z,20.70
2018-06-04T20:19:06.451Z,20.60
2018-06-04T20:21:35.496Z,20.50
2018-06-04T20:26:33.244Z,20.40
2018-06-04T20:29:02.295Z,20.30
2018-06-04T20:31:31.419Z,20.20
2018-06-04T20:34:00.447Z,20.10
2018-06-04T20:36:29.499Z,20.10
2018-06-04T20:38:58.558Z,20.00
2018-06-04T20:41:27.606Z,20.00
2018-06-04T20:43:56.668Z,20.00
2018-06-04T20:46:25.707Z,19.90
2018-06-04T20:48:54.732Z,19.90
2018-06-04T20:51:23.759Z,19.90
2018-06-04T20:53:52.767Z,19.90
2018-06-04T20:56:21.848Z,19.80
2018-06-04T20:58:50.893Z,19.80
2018-06-04T21:01:19.938Z,19.70
2018-06-04T21:03:48.997Z,19.70
2018-06-04T21:06:18.051Z,19.60
2018-06-04T21:08:47.058Z,19.50
2018-06-04T21:11:16.096Z,19.30
2018-06-04T21:13:45.075Z,19.20
2018-06-04T21:16:14.096Z,19.10
2018-06-04T21:18:43.176Z,19.00
2018-06-04T21:21:12.209Z,18.90
2018-06-04T21:23:41.271Z,18.80
2018-06-04T21:26:10.281Z,18.70
2018-06-04T21:28:39.318Z,18.60
2018-06-04T21:31:08.357Z,18.50
2018-06-04T21:33:37.408Z,18.50
2018-06-04T21:36:06.443Z,18.50
2018-06-04T21:38:35.509Z,18.40
2018-06-04T21:41:04.615Z,18.30
2018-06-04T21:43:33.672Z,18.30
2018-06-04T21:46:02.712Z,18.30
2018-06-04T21:48:31.750Z,18.20
2018-06-04T21:51:00.745Z,18.10
2018-06-04T21:53:29.758Z,18.10
2018-06-04T21:55:58.775Z,18.10
2018-06-04T21:58:27.843Z,18.00
2018-06-04T22:00:56.879Z,18.00
2018-06-04T22:03:25.869Z,18.10
2018-06-04T22:05:54.910Z,18.00
2018-06-04T22:08:23.944Z,18.10
2018-06-04T22:10:53.226Z,18.00
2018-06-04T22:13:22.246Z,18.00
2018-06-04T22:15:51.300Z,18.00
2018-06-04T22:18:20.426Z,18.00
2018-06-04T22:20:49.442Z,18.00
2018-06-04T22:23:18.488Z,18.00
2018-06-04T22:25:47.506Z,18.00
2018-06-04T22:28:16.540Z,18.10
2018-06-04T22:30:45.576Z,18.10
2018-06-04T22:33:14.594Z,18.20
2018-06-04T22:35:44.618Z,18.20
2018-06-04T22:38:13.668Z,18.20
2018-06-04T22:40:42.662Z,18.20
2018-06-04T22:43:11.668Z,18.20
2018-06-04T22:45:40.714Z,18.10
2018-06-04T22:48:09.762Z,18.20
2018-06-04T22:50:38.773Z,18.10
2018-06-04T22:53:07.808Z,18.10
2018-06-04T22:55:36.815Z,18.10
2018-06-04T22:58:05.905Z,18.10
2018-06-04T23:00:35.851Z,18.00
2018-06-04T23:05:33.417Z,18.10
2018-06-04T23:08:02.442Z,18.00
2018-06-04T23:10:31.447Z,18.00
2018-06-04T23:13:00.457Z,18.00
2018-06-04T23:15:29.515Z,18.00
2018-06-04T23:17:58.520Z,18.00
2018-06-04T23:20:27.592Z,18.00
2018-06-04T23:22:56.583Z,18.00
2018-06-04T23:25:25.643Z,18.00
2018-06-04T23:27:54.652Z,18.00
2018-06-04T23:30:23.695Z,18.10
2018-06-04T23:32:52.741Z,18.10
2018-06-04T23:35:21.734Z,18.10
2018-06-04T23:37:50.758Z,18.10
2018-06-04T23:40:19.746Z,18.20
2018-06-04T23:42:48.785Z,18.20
2018-06-04T23:45:17.868Z,18.20
2018-06-04T23:47:46.985Z,18.10
2018-06-04T23:50:15.988Z,18.20
2018-06-04T23:52:45.002Z,18.10
2018-06-04T23:55:14.025Z,18.10
2018-06-04T23:57:43.051Z,18.10
